Time;durP1;ratioP1;P1;durP2;ratioP2;P2;SDS_P1;SDS_P2;PMS_P1;PMS_P2;Temp;Humidity;BMP_temperature;BMP_pressure;BME280_temperature;BME280_humidity;BME280_pressure;Samples;Min_cycle;Max_cycle;Signal;HPM_P1;HPM_P2
2021/04/30 00:02:18;;;;;;;6.10;3.67;;;11.30;63.20;;;;;;5052581;28;20051;-81
2021/04/30 00:04:44;;;;;;;7.47;4.43;;;11.30;63.20;;;;;;5052562;28;20048;-81
2021/04/30 00:07:09;;;;;;;4.55;3.30;;;11.30;63.10;;;;;;5052592;28;20021;-80
2021/04/30 00:09:35;;;;;;;7.43;4.00;;;11.30;63.10;;;;;;5052284;28;20029;-80
2021/04/30 00:12:00;;;;;;;7.57;3.50;;;11.30;63.30;;;;;;5052594;28;20032;-81
2021/04/30 00:14:26;;;;;;;7.80;3.28;;;11.30;63.60;;;;;;5052441;28;20039;-80
2021/04/30 00:16:52;;;;;;;5.90;4.07;;;11.30;63.70;;;;;;5052531;28;20493;-81
2021/04/30 00:19:19;;;;;;;6.97;4.35;;;11.30;63.70;;;;;;5052707;28;20458;-80
2021/04/30 00:21:45;;;;;;;8.95;4.10;;;11.30;63.60;;;;;;5052594;28;20025;-80
2021/04/30 00:24:12;;;;;;;7.63;4.13;;;11.20;63.90;;;;;;5059710;28;20101;-79
2021/04/30 00:26:38;;;;;;;8.70;3.92;;;11.30;64.20;;;;;;5077274;28;20025;-78
2021/04/30 00:29:04;;;;;;;10.30;5.32;;;11.30;64.20;;;;;;5062188;28;20082;-79
2021/04/30 00:31:29;;;;;;;9.82;6.15;;;11.30;64.10;;;;;;5052519;28;20021;-79
2021/04/30 00:33:56;;;;;;;9.00;6.10;;;11.10;62.50;;;;;;5052511;28;20039;-80
2021/04/30 00:36:22;;;;;;;10.65;6.93;;;11.00;61.40;;;;;;5052401;28;20112;-80
2021/04/30 00:38:48;;;;;;;10.63;7.10;;;10.90;61.20;;;;;;5052024;28;20124;-80
2021/04/30 00:41:13;;;;;;;11.15;6.90;;;10.70;61.80;;;;;;5054063;28;20476;-80
2021/04/30 00:43:39;;;;;;;12.90;7.57;;;10.50;62.70;;;;;;5055929;28;20362;-80
2021/04/30 00:46:04;;;;;;;13.75;7.60;;;10.40;63.40;;;;;;5055913;28;20074;-80
2021/04/30 00:48:30;;;;;;;8.90;7.03;;;10.10;64.50;;;;;;5055757;28;20478;-79
2021/04/30 00:50:56;;;;;;;13.85;7.63;;;9.90;65.80;;;;;;5055763;28;20021;-79
2021/04/30 00:53:21;;;;;;;11.32;7.32;;;9.70;66.90;;;;;;5055747;28;20025;-79
2021/04/30 00:55:47;;;;;;;10.50;7.05;;;9.60;67.70;;;;;;5054417;28;20017;-79
2021/04/30 00:58:13;;;;;;;16.17;7.35;;;9.30;68.70;;;;;;5055825;28;20056;-78
2021/04/30 01:00:38;;;;;;;10.13;7.03;;;9.20;69.10;;;;;;5055601;28;20021;-79
2021/04/30 01:03:08;;;;;;;13.07;8.07;;;9.20;69.10;;;;;;5055578;28;20079;-79
2021/04/30 01:05:34;;;;;;;12.63;7.88;;;9.10;69.20;;;;;;5055564;28;20024;-78
2021/04/30 01:08:00;;;;;;;10.60;7.55;;;9.10;69.30;;;;;;5054106;28;20458;-81
2021/04/30 01:10:26;;;;;;;9.77;7.50;;;9.20;69.00;;;;;;5055556;28;20057;-80
2021/04/30 01:12:51;;;;;;;10.73;6.68;;;9.20;68.60;;;;;;5056133;28;20032;-80
2021/04/30 01:15:18;;;;;;;12.15;8.48;;;9.20;68.90;;;;;;5060446;28;20051;-81
2021/04/30 01:17:44;;;;;;;11.18;7.65;;;9.30;67.70;;;;;;5063572;28;20021;-79
2021/04/30 01:20:11;;;;;;;11.05;7.63;;;9.30;67.50;;;;;;5055644;28;20021;-81
2021/04/30 01:22:44;;;;;;;10.65;7.82;;;9.30;67.20;;;;;;5055155;28;20033;-80
2021/04/30 01:25:18;;;;;;;10.77;7.60;;;9.40;66.70;;;;;;5053961;28;20029;-79
2021/04/30 01:27:44;;;;;;;11.18;7.47;;;9.50;66.70;;;;;;5055068;28;20079;-78
2021/04/30 01:30:15;;;;;;;12.32;7.53;;;9.40;66.50;;;;;;5055119;28;20021;-79
2021/04/30 01:32:41;;;;;;;11.63;7.93;;;9.40;67.20;;;;;;5055027;28;20477;-79
2021/04/30 01:35:08;;;;;;;8.95;7.22;;;9.50;67.50;;;;;;5054935;28;20086;-79
2021/04/30 01:37:34;;;;;;;11.75;6.78;;;9.50;67.90;;;;;;5054825;28;20063;-79
2021/04/30 01:40:00;;;;;;;11.68;8.35;;;9.60;67.60;;;;;;5054804;28;20084;-79
2021/04/30 01:42:26;;;;;;;10.10;7.32;;;9.60;66.90;;;;;;5054864;28;20187;-78
2021/04/30 01:44:51;;;;;;;16.77;8.85;;;9.60;66.60;;;;;;5054876;28;20031;-77
2021/04/30 01:47:17;;;;;;;9.80;7.78;;;9.50;66.10;;;;;;5054577;28;20462;-77
2021/04/30 01:49:44;;;;;;;12.32;8.18;;;9.40;66.00;;;;;;5054596;28;20664;-76
2021/04/30 01:52:09;;;;;;;11.65;8.40;;;9.30;66.30;;;;;;5053589;28;20205;-77
2021/04/30 01:54:35;;;;;;;12.18;8.98;;;9.20;65.90;;;;;;5054623;28;20331;-78
2021/04/30 01:57:01;;;;;;;11.15;9.35;;;9.10;66.50;;;;;;5054620;28;20029;-78
2021/04/30 01:59:26;;;;;;;15.40;9.77;;;9.00;66.80;;;;;;5054463;28;20056;-78
2021/04/30 02:01:52;;;;;;;11.68;8.75;;;8.90;66.80;;;;;;5054511;28;20551;-77
2021/04/30 02:04:17;;;;;;;13.90;9.65;;;8.80;67.10;;;;;;5054337;28;20167;-78
2021/04/30 02:06:46;;;;;;;13.13;9.02;;;8.80;67.30;;;;;;5054238;28;20028;-79
2021/04/30 02:09:12;;;;;;;13.00;9.63;;;8.80;67.40;;;;;;5054255;28;20427;-78
2021/04/30 02:11:37;;;;;;;11.80;9.00;;;8.80;67.20;;;;;;5054118;28;20052;-77
2021/04/30 02:14:05;;;;;;;13.20;9.60;;;8.70;67.00;;;;;;5054233;28;20045;-78
2021/04/30 02:16:32;;;;;;;12.95;9.77;;;8.60;67.20;;;;;;5054128;28;20037;-78
2021/04/30 02:18:58;;;;;;;12.68;9.30;;;8.60;68.00;;;;;;5054121;28;20100;-78
2021/04/30 02:21:24;;;;;;;12.80;9.35;;;8.60;68.40;;;;;;5053772;28;20029;-79
2021/04/30 02:23:49;;;;;;;12.95;9.55;;;8.70;68.60;;;;;;5053962;28;20048;-79
2021/04/30 02:26:16;;;;;;;13.63;10.73;;;8.60;69.20;;;;;;5053875;28;20053;-77
2021/04/30 02:28:45;;;;;;;13.73;11.02;;;8.50;69.30;;;;;;5053903;28;20021;-78
2021/04/30 02:31:12;;;;;;;13.02;10.88;;;8.50;69.10;;;;;;5053819;28;20017;-78
2021/04/30 02:33:37;;;;;;;14.43;11.18;;;8.40;69.10;;;;;;5053755;28;20033;-78
2021/04/30 02:36:03;;;;;;;13.82;9.80;;;8.30;69.60;;;;;;5053658;28;20033;-77
2021/04/30 02:38:31;;;;;;;13.48;10.40;;;8.30;69.60;;;;;;5052219;28;20086;-78
2021/04/30 02:40:57;;;;;;;11.45;8.77;;;8.40;69.80;;;;;;5053695;28;20128;-78
2021/04/30 02:43:23;;;;;;;14.93;10.90;;;8.50;70.30;;;;;;5052257;28;20039;-78
2021/04/30 02:45:51;;;;;;;12.38;9.77;;;8.60;71.10;;;;;;5054654;28;20365;-79
2021/04/30 02:48:26;;;;;;;13.32;9.60;;;8.50;71.60;;;;;;5053447;28;20033;-79
2021/04/30 02:50:52;;;;;;;12.00;7.63;;;8.60;71.20;;;;;;5055814;28;20028;-79
2021/04/30 02:53:17;;;;;;;12.23;9.18;;;8.70;71.00;;;;;;5057153;28;20025;-78
2021/04/30 02:55:43;;;;;;;14.02;9.73;;;8.80;70.80;;;;;;5053829;28;20020;-79
2021/04/30 02:58:10;;;;;;;11.20;8.60;;;8.80;70.30;;;;;;5053307;28;20051;-80
2021/04/30 03:00:35;;;;;;;12.43;9.90;;;8.90;70.30;;;;;;5058686;28;20051;-79
2021/04/30 03:03:02;;;;;;;13.63;9.43;;;8.90;69.90;;;;;;5052848;28;20477;-79
2021/04/30 03:05:28;;;;;;;13.25;9.38;;;8.90;69.90;;;;;;5053200;28;20021;-78
2021/04/30 03:07:53;;;;;;;15.15;10.40;;;8.90;69.80;;;;;;5053134;28;20561;-78
2021/04/30 03:10:19;;;;;;;11.70;9.55;;;8.90;70.40;;;;;;5053069;28;20107;-77
2021/04/30 03:12:49;;;;;;;11.95;9.68;;;8.90;71.30;;;;;;5053034;28;20028;-79
2021/04/30 03:15:16;;;;;;;11.65;9.52;;;9.00;70.00;;;;;;5053115;28;20421;-78
2021/04/30 03:17:43;;;;;;;13.77;10.90;;;9.10;69.70;;;;;;5052987;28;20025;-78
2021/04/30 03:20:09;;;;;;;18.73;12.20;;;9.10;69.50;;;;;;5053133;28;20428;-78
2021/04/30 03:22:35;;;;;;;13.63;10.18;;;9.00;69.40;;;;;;5052856;28;20094;-79
2021/04/30 03:25:01;;;;;;;13.07;9.90;;;9.10;69.60;;;;;;5052992;28;20036;-78
2021/04/30 03:27:27;;;;;;;15.45;11.07;;;9.00;69.40;;;;;;5052852;28;20496;-79
2021/04/30 03:29:54;;;;;;;13.82;9.55;;;9.00;69.70;;;;;;5052860;28;20017;-78
2021/04/30 03:32:20;;;;;;;15.00;10.63;;;9.00;69.80;;;;;;5052728;28;20502;-80
2021/04/30 03:34:46;;;;;;;15.35;10.70;;;9.00;69.80;;;;;;5052949;28;20056;-81
2021/04/30 03:37:11;;;;;;;15.40;11.18;;;9.00;69.80;;;;;;5052731;28;20019;-81
2021/04/30 03:39:37;;;;;;;13.20;9.75;;;8.90;69.30;;;;;;5052717;28;20072;-81
2021/04/30 03:42:03;;;;;;;11.88;10.23;;;8.90;69.20;;;;;;5052848;28;20032;-81
2021/04/30 03:44:28;;;;;;;12.27;9.70;;;9.00;69.00;;;;;;5052995;28;20029;-80
2021/04/30 03:46:54;;;;;;;11.43;9.63;;;8.90;68.90;;;;;;5052880;28;20025;-80
2021/04/30 03:49:20;;;;;;;12.27;9.85;;;8.90;69.10;;;;;;5052616;28;20104;-80
2021/04/30 03:51:45;;;;;;;12.98;10.35;;;8.90;69.10;;;;;;5052516;28;20033;-81
2021/04/30 03:54:11;;;;;;;11.98;9.55;;;8.90;69.00;;;;;;5052689;28;20036;-77
2021/04/30 03:56:36;;;;;;;15.02;11.80;;;9.00;69.00;;;;;;5052593;28;20035;-80
2021/04/30 03:59:02;;;;;;;18.15;12.38;;;9.00;69.30;;;;;;5052575;28;20532;-78
2021/04/30 04:01:28;;;;;;;16.30;12.52;;;8.80;69.70;;;;;;5052522;28;20029;-78
2021/04/30 04:03:54;;;;;;;17.67;12.90;;;8.70;70.30;;;;;;5052659;28;20037;-79
2021/04/30 04:06:20;;;;;;;17.63;12.52;;;8.60;71.20;;;;;;5052725;28;20051;-79
2021/04/30 04:08:45;;;;;;;17.70;11.32;;;8.60;71.60;;;;;;5052444;28;20029;-80
2021/04/30 04:11:11;;;;;;;16.33;13.20;;;8.60;71.50;;;;;;5052588;28;20107;-78
2021/04/30 04:13:37;;;;;;;14.45;11.65;;;8.60;71.80;;;;;;5052462;28;20029;-79
2021/04/30 04:16:03;;;;;;;16.02;11.80;;;8.60;72.00;;;;;;5053995;28;20021;-79
2021/04/30 04:18:29;;;;;;;15.35;11.65;;;8.60;71.70;;;;;;5054902;28;20025;-79
2021/04/30 04:20:55;;;;;;;15.23;12.00;;;8.60;71.50;;;;;;5056274;28;20096;-79
2021/04/30 04:23:20;;;;;;;16.25;12.55;;;8.70;71.50;;;;;;5056198;28;20037;-79
2021/04/30 04:25:46;;;;;;;16.90;12.90;;;8.70;71.40;;;;;;5056118;28;20530;-79
2021/04/30 04:28:12;;;;;;;14.50;11.90;;;8.80;71.40;;;;;;5056208;28;20021;-79
2021/04/30 04:30:38;;;;;;;15.30;11.70;;;8.80;71.60;;;;;;5056044;28;20100;-79
2021/04/30 04:33:04;;;;;;;17.77;12.15;;;8.80;71.40;;;;;;5056048;28;20041;-79
2021/04/30 04:35:29;;;;;;;18.08;12.25;;;8.90;71.50;;;;;;5055935;28;20028;-79
2021/04/30 04:37:55;;;;;;;16.95;12.50;;;8.90;71.50;;;;;;5055740;28;20033;-79
2021/04/30 04:40:22;;;;;;;17.10;12.88;;;8.90;72.10;;;;;;5055597;28;20056;-80
2021/04/30 04:42:48;;;;;;;19.48;13.65;;;8.80;72.80;;;;;;5054825;28;20466;-80
2021/04/30 04:45:14;;;;;;;23.00;13.85;;;8.60;73.70;;;;;;5055140;28;20036;-80
2021/04/30 04:47:41;;;;;;;16.25;13.02;;;8.50;74.10;;;;;;5055871;28;20018;-80
2021/04/30 04:50:08;;;;;;;17.95;13.65;;;8.40;74.50;;;;;;5056574;28;20116;-81
2021/04/30 04:52:34;;;;;;;17.90;11.75;;;8.40;75.30;;;;;;5055867;28;20025;-81
2021/04/30 04:54:59;;;;;;;16.00;12.43;;;8.50;75.30;;;;;;5055868;28;20032;-79
2021/04/30 04:57:25;;;;;;;14.80;11.32;;;8.50;75.10;;;;;;5055705;28;20025;-81
2021/04/30 04:59:50;;;;;;;14.32;11.77;;;8.60;74.80;;;;;;5055675;28;20028;-80
2021/04/30 05:02:16;;;;;;;17.92;12.55;;;8.70;74.70;;;;;;5055450;28;20033;-80
2021/04/30 05:04:44;;;;;;;16.00;12.73;;;8.80;74.40;;;;;;5055320;28;20036;-80
2021/04/30 05:07:10;;;;;;;17.52;12.10;;;8.90;74.10;;;;;;5055487;28;20078;-81
2021/04/30 05:09:35;;;;;;;15.07;11.77;;;8.90;73.70;;;;;;5055461;28;20028;-81
2021/04/30 05:12:01;;;;;;;17.15;13.48;;;9.00;73.30;;;;;;5054014;28;20029;-81
2021/04/30 05:14:26;;;;;;;19.15;14.10;;;9.00;72.90;;;;;;5055312;28;20103;-81
2021/04/30 05:16:52;;;;;;;18.50;12.10;;;9.00;72.80;;;;;;5055377;28;20146;-80
2021/04/30 05:19:17;;;;;;;15.32;12.30;;;9.10;72.70;;;;;;5055121;28;20017;-80
2021/04/30 05:21:46;;;;;;;18.88;14.77;;;9.10;72.70;;;;;;5055158;28;20553;-80
2021/04/30 05:24:12;;;;;;;19.50;15.07;;;9.10;72.50;;;;;;5054965;28;20029;-82
2021/04/30 05:26:38;;;;;;;18.80;13.52;;;9.10;72.30;;;;;;5054761;28;20013;-80
2021/04/30 05:29:04;;;;;;;17.92;13.38;;;9.10;72.10;;;;;;5055794;28;20039;-80
2021/04/30 05:31:30;;;;;;;14.40;12.00;;;9.10;71.90;;;;;;5054766;28;20027;-80
2021/04/30 05:33:56;;;;;;;14.98;12.25;;;9.10;72.00;;;;;;5056051;28;20085;-81
2021/04/30 05:36:22;;;;;;;19.35;13.65;;;9.10;72.10;;;;;;5056654;28;20497;-79
2021/04/30 05:38:47;;;;;;;14.73;11.00;;;9.20;72.30;;;;;;5055834;28;20056;-80
2021/04/30 05:41:13;;;;;;;15.82;12.23;;;9.30;72.10;;;;;;5055543;28;20025;-80
2021/04/30 05:43:38;;;;;;;12.68;10.32;;;9.40;72.20;;;;;;5054157;28;20029;-81
2021/04/30 05:46:04;;;;;;;16.02;12.50;;;9.50;72.00;;;;;;5054605;28;20075;-81
2021/04/30 05:48:29;;;;;;;18.35;12.65;;;9.60;71.80;;;;;;5054537;28;20492;-80
2021/04/30 05:50:55;;;;;;;14.75;12.63;;;9.70;71.40;;;;;;5054397;28;20381;-80
2021/04/30 05:53:22;;;;;;;18.55;13.45;;;9.80;70.60;;;;;;5054243;28;20021;-80
2021/04/30 05:55:48;;;;;;;13.85;11.55;;;9.60;69.90;;;;;;5054615;28;20021;-81
2021/04/30 05:58:14;;;;;;;19.15;13.70;;;9.60;70.70;;;;;;5054493;28;20017;-81
2021/04/30 06:00:40;;;;;;;19.92;15.23;;;9.60;70.10;;;;;;5055716;28;20029;-79
2021/04/30 06:03:06;;;;;;;20.45;15.30;;;9.30;71.30;;;;;;5054089;28;20029;-79
2021/04/30 06:05:31;;;;;;;21.67;15.48;;;9.10;70.40;;;;;;5054649;28;20112;-80
2021/04/30 06:07:57;;;;;;;21.60;15.02;;;9.10;70.70;;;;;;5054252;28;20025;-81
2021/04/30 06:10:23;;;;;;;19.30;14.68;;;9.00;70.60;;;;;;5053845;28;20052;-78
2021/04/30 06:12:48;;;;;;;19.75;14.57;;;8.90;70.90;;;;;;5052909;28;20033;-80
2021/04/30 06:15:14;;;;;;;19.70;14.95;;;8.80;71.20;;;;;;5055517;28;20071;-80
2021/04/30 06:17:40;;;;;;;22.30;15.77;;;8.70;71.20;;;;;;5053952;28;20036;-80
2021/04/30 06:20:06;;;;;;;22.65;15.45;;;8.60;71.60;;;;;;5054040;28;20021;-80
2021/04/30 06:22:32;;;;;;;22.00;14.52;;;8.60;71.80;;;;;;5053504;28;20025;-81
2021/04/30 06:24:57;;;;;;;21.13;14.02;;;8.60;72.00;;;;;;5052505;28;20544;-80
2021/04/30 06:27:23;;;;;;;19.98;14.20;;;8.70;72.10;;;;;;5054107;28;20064;-79
2021/04/30 06:29:49;;;;;;;19.95;14.82;;;8.90;72.20;;;;;;5052654;28;20056;-79
2021/04/30 06:32:15;;;;;;;22.42;15.60;;;9.00;71.50;;;;;;5052145;28;20053;-79
2021/04/30 06:34:40;;;;;;;18.05;14.00;;;9.00;70.70;;;;;;5051944;28;20127;-78
2021/04/30 06:37:06;;;;;;;18.50;13.10;;;9.00;70.70;;;;;;5053004;28;20017;-78
2021/04/30 06:39:31;;;;;;;20.55;13.95;;;9.10;70.70;;;;;;5053013;28;20095;-79
2021/04/30 06:42:01;;;;;;;18.10;14.43;;;9.20;70.30;;;;;;5053287;28;20147;-78
2021/04/30 06:44:27;;;;;;;15.88;12.52;;;9.20;70.00;;;;;;5053315;28;20516;-80
2021/04/30 06:46:53;;;;;;;18.50;13.13;;;9.30;70.10;;;;;;5053514;28;20029;-77
2021/04/30 06:49:19;;;;;;;20.02;14.55;;;9.30;69.70;;;;;;5053472;28;20036;-77
2021/04/30 06:51:44;;;;;;;21.00;15.40;;;9.40;69.10;;;;;;5053178;28;20020;-79
2021/04/30 06:54:10;;;;;;;20.20;14.07;;;9.40;68.70;;;;;;5053179;28;20029;-81
2021/04/30 06:56:35;;;;;;;20.50;14.55;;;9.40;68.60;;;;;;5051811;28;20057;-76
2021/04/30 06:59:01;;;;;;;19.25;14.40;;;9.40;68.00;;;;;;5053355;28;20025;-77
2021/04/30 07:01:27;;;;;;;17.10;13.40;;;9.60;67.70;;;;;;5053021;28;20030;-77
2021/04/30 07:03:52;;;;;;;19.90;14.40;;;9.70;67.30;;;;;;5052933;28;20390;-74
2021/04/30 07:06:21;;;;;;;19.05;14.57;;;9.80;66.90;;;;;;5052976;28;20025;-80
2021/04/30 07:08:47;;;;;;;17.73;14.32;;;9.80;66.70;;;;;;5052889;28;20063;-80
2021/04/30 07:11:13;;;;;;;23.00;15.30;;;9.70;66.70;;;;;;5052832;28;20017;-78
2021/04/30 07:13:39;;;;;;;20.67;13.68;;;9.50;66.60;;;;;;5052886;28;20021;-78
2021/04/30 07:16:06;;;;;;;19.00;14.00;;;9.40;66.90;;;;;;5052604;28;20029;-76
2021/04/30 07:18:32;;;;;;;19.48;13.02;;;9.50;67.20;;;;;;5052763;28;20072;-76
2021/04/30 07:20:58;;;;;;;17.70;13.30;;;9.70;67.00;;;;;;5052608;28;20106;-75
2021/04/30 07:23:24;;;;;;;21.27;14.57;;;9.90;66.60;;;;;;5052581;28;20041;-77
2021/04/30 07:25:50;;;;;;;22.25;14.15;;;10.00;66.00;;;;;;5052677;28;20393;-77
2021/04/30 07:28:16;;;;;;;15.05;11.50;;;10.20;65.70;;;;;;5057700;28;20505;-79
2021/04/30 07:30:41;;;;;;;16.42;11.73;;;10.50;74.20;;;;;;5058852;28;20021;-77
2021/04/30 07:33:07;;;;;;;18.15;11.75;;;11.00;76.40;;;;;;5053792;28;20036;-76
2021/04/30 07:35:33;;;;;;;20.38;12.27;;;11.50;74.10;;;;;;5053849;28;20100;-77
2021/04/30 07:37:58;;;;;;;15.77;12.13;;;11.70;68.60;;;;;;5053200;28;20535;-77
2021/04/30 07:40:24;;;;;;;28.20;15.00;;;11.90;67.30;;;;;;5052474;28;20107;-76
2021/04/30 07:42:50;;;;;;;49.33;18.23;;;11.90;64.70;;;;;;5052020;28;20028;-77
2021/04/30 07:45:16;;;;;;;38.05;14.50;;;12.00;65.20;;;;;;5054472;28;20025;-78
2021/04/30 07:47:41;;;;;;;20.25;13.18;;;12.00;63.40;;;;;;5056429;28;20025;-77
2021/04/30 07:50:08;;;;;;;21.95;12.07;;;12.00;62.80;;;;;;5052832;28;20033;-77
2021/04/30 07:52:34;;;;;;;19.02;11.43;;;12.10;62.70;;;;;;5057252;28;20021;-83
2021/04/30 07:55:02;;;;;;;16.20;11.27;;;12.10;62.20;;;;;;5059765;28;20021;-77
2021/04/30 07:57:29;;;;;;;16.15;10.65;;;12.10;61.30;;;;;;5055504;28;20393;-76
2021/04/30 07:59:55;;;;;;;16.17;12.82;;;12.20;59.80;;;;;;5056123;28;20021;-76
2021/04/30 08:02:21;;;;;;;17.67;13.82;;;12.00;58.10;;;;;;5056009;28;20362;-74
2021/04/30 08:04:47;;;;;;;19.65;13.85;;;11.40;58.30;;;;;;5055981;28;20033;-75
2021/04/30 08:07:14;;;;;;;19.35;13.48;;;11.10;59.80;;;;;;5056212;28;20112;-75
2021/04/30 08:09:41;;;;;;;16.27;13.23;;;10.90;60.60;;;;;;5055579;28;20032;-75
2021/04/30 08:12:07;;;;;;;18.42;12.25;;;10.90;61.20;;;;;;5056016;28;20035;-75
2021/04/30 08:14:33;;;;;;;16.77;13.05;;;11.00;61.40;;;;;;5055998;28;20036;-75
2021/04/30 08:16:58;;;;;;;17.80;14.00;;;11.10;61.40;;;;;;5056044;28;20377;-75
2021/04/30 08:19:25;;;;;;;16.38;13.60;;;11.00;61.00;;;;;;5055710;28;20420;-75
2021/04/30 08:21:52;;;;;;;16.88;13.18;;;10.90;61.30;;;;;;5055960;28;20048;-75
2021/04/30 08:24:18;;;;;;;16.23;13.25;;;10.70;61.90;;;;;;5055743;28;20442;-75
2021/04/30 08:26:44;;;;;;;21.65;13.65;;;10.50;62.80;;;;;;5055868;28;20070;-75
2021/04/30 08:29:10;;;;;;;19.10;14.45;;;10.50;63.00;;;;;;5054605;28;20120;-75
2021/04/30 08:31:37;;;;;;;18.67;14.05;;;10.40;63.50;;;;;;5055526;28;20082;-75
2021/04/30 08:34:03;;;;;;;20.35;14.27;;;10.50;64.10;;;;;;5055524;28;20017;-74
2021/04/30 08:36:28;;;;;;;18.75;14.57;;;10.60;63.70;;;;;;5055528;28;20388;-74
2021/04/30 08:38:54;;;;;;;20.27;14.02;;;10.50;63.60;;;;;;5055107;28;20100;-74
2021/04/30 08:41:23;;;;;;;23.15;13.43;;;10.50;63.60;;;;;;5055545;28;20033;-74
2021/04/30 08:43:50;;;;;;;20.52;13.90;;;10.80;63.50;;;;;;5055481;28;20505;-74
2021/04/30 08:46:15;;;;;;;17.02;13.63;;;11.00;63.40;;;;;;5055223;28;20350;-74
2021/04/30 08:48:41;;;;;;;17.65;13.82;;;11.10;62.80;;;;;;5055176;28;20100;-74
2021/04/30 08:51:07;;;;;;;16.98;12.57;;;11.20;62.50;;;;;;5055215;28;20025;-74
2021/04/30 08:53:32;;;;;;;15.13;12.65;;;11.40;61.90;;;;;;5055330;28;20090;-73
2021/04/30 08:56:02;;;;;;;17.40;13.20;;;11.80;61.50;;;;;;5054986;28;20017;-74
2021/04/30 08:58:28;;;;;;;18.25;13.88;;;11.60;60.40;;;;;;5054942;28;20047;-74
2021/04/30 09:00:54;;;;;;;18.08;14.13;;;11.60;60.70;;;;;;5054536;28;20021;-75
2021/04/30 09:03:20;;;;;;;19.33;13.15;;;11.50;61.40;;;;;;5055151;28;20043;-74
2021/04/30 09:05:48;;;;;;;18.52;12.82;;;11.80;61.20;;;;;;5053639;28;20036;-74
2021/04/30 09:08:15;;;;;;;19.63;13.70;;;12.00;60.00;;;;;;5055033;28;20557;-74
2021/04/30 09:10:42;;;;;;;20.70;14.48;;;11.90;59.80;;;;;;5054953;28;20048;-74
2021/04/30 09:13:13;;;;;;;24.33;14.82;;;11.60;60.50;;;;;;5054935;28;20374;-74
2021/04/30 09:15:41;;;;;;;20.25;14.68;;;11.50;60.80;;;;;;5054779;28;20055;-76
2021/04/30 09:18:25;;;;;;;19.40;14.60;;;11.30;61.90;;;;;;5054595;28;20025;-73
2021/04/30 09:20:52;;;;;;;18.88;14.32;;;11.40;62.00;;;;;;5053466;28;20033;-74
2021/04/30 09:23:36;;;;;;;19.48;14.23;;;11.30;62.60;;;;;;5053055;28;20033;-75
2021/04/30 09:26:25;;;;;;;18.90;14.02;;;11.30;62.00;;;;;;5053323;28;20435;-74
2021/04/30 09:29:05;;;;;;;16.00;12.85;;;11.50;61.20;;;;;;5053124;28;20608;-73
2021/04/30 09:31:44;;;;;;;18.50;13.77;;;11.50;61.10;;;;;;5054425;28;20017;-75
2021/04/30 09:34:29;;;;;;;18.98;12.90;;;11.80;60.80;;;;;;5053046;28;20094;-76
2021/04/30 09:37:17;;;;;;;16.85;12.85;;;12.10;59.10;;;;;;5053000;28;20035;-76
2021/04/30 09:40:03;;;;;;;16.88;12.63;;;12.30;58.50;;;;;;5052900;28;20394;-76
2021/04/30 09:42:30;;;;;;;;;;;12.60;57.80;;;;;;5054694;28;20029;-76
2021/04/30 09:45:02;;;;;;;19.73;13.95;;;12.70;57.20;;;;;;5054031;28;19948;-76
2021/04/30 09:47:32;;;;;;;16.13;13.15;;;12.90;56.60;;;;;;5052815;28;20025;-76
2021/04/30 09:49:59;;;;;;;17.65;13.02;;;13.10;56.20;;;;;;5055302;28;20429;-76
2021/04/30 09:52:27;;;;;;;16.40;13.32;;;13.40;56.60;;;;;;5055704;28;20044;-75
2021/04/30 09:54:54;;;;;;;19.73;13.77;;;13.60;54.40;;;;;;5055622;28;20025;-76
2021/04/30 09:57:23;;;;;;;17.40;13.13;;;13.20;54.00;;;;;;5055765;28;20024;-75
2021/04/30 09:59:52;;;;;;;16.10;12.00;;;12.90;54.90;;;;;;5055369;28;20103;-76
2021/04/30 10:02:18;;;;;;;16.83;12.88;;;12.90;55.20;;;;;;5052434;28;20028;-75
2021/04/30 10:04:46;;;;;;;16.05;12.23;;;12.50;55.60;;;;;;5053438;28;20037;-74
2021/04/30 10:07:14;;;;;;;17.70;12.38;;;12.20;56.90;;;;;;5052349;28;20023;-74
2021/04/30 10:09:42;;;;;;;19.33;14.05;;;11.80;58.30;;;;;;5053652;28;20483;-75
2021/04/30 10:12:22;;;;;;;19.95;14.40;;;11.40;59.80;;;;;;5052456;28;20029;-76
2021/04/30 10:14:49;;;;;;;17.05;14.20;;;11.00;62.30;;;;;;5051991;28;20017;-76
2021/04/30 10:17:15;;;;;;;22.50;15.57;;;10.70;63.90;;;;;;5052274;28;20032;-76
2021/04/30 10:19:43;;;;;;;25.15;15.55;;;10.40;66.40;;;;;;5053873;28;20021;-76
2021/04/30 10:22:21;;;;;;;22.13;15.77;;;10.20;68.00;;;;;;5052520;28;20074;-76
2021/04/30 10:24:52;;;;;;;22.20;15.07;;;10.00;68.90;;;;;;5052553;28;20111;-76
2021/04/30 10:27:32;;;;;;;19.27;14.45;;;9.90;70.70;;;;;;5052300;28;20448;-76
2021/04/30 10:30:11;;;;;;;21.40;15.27;;;9.70;70.70;;;;;;5052413;28;20025;-76
2021/04/30 10:32:56;;;;;;;25.33;16.10;;;9.50;72.70;;;;;;5052105;28;20025;-76
2021/04/30 10:36:01;;;;;;;24.23;17.50;;;9.40;73.50;;;;;;5053722;28;20390;-76
2021/04/30 10:38:31;;;;;;;24.52;16.60;;;9.30;74.00;;;;;;5040850;28;20280;-76
2021/04/30 10:41:06;;;;;;;29.55;18.33;;;9.30;74.90;;;;;;5035445;28;20037;-76
2021/04/30 10:43:34;;;;;;;28.92;19.40;;;9.10;75.50;;;;;;5052135;28;20060;-76
2021/04/30 10:46:15;;;;;;;33.25;19.15;;;9.00;76.70;;;;;;5052052;28;20116;-76
2021/04/30 10:49:05;;;;;;;30.27;19.60;;;8.60;76.90;;;;;;5051841;28;20017;-76
2021/04/30 10:51:36;;;;;;;29.42;20.25;;;8.50;77.90;;;;;;5051948;28;20412;-77
2021/04/30 10:54:21;;;;;;;34.22;21.33;;;8.40;78.60;;;;;;5050386;28;20485;-77
2021/04/30 10:57:00;;;;;;;34.70;21.52;;;8.40;79.00;;;;;;5051950;28;20116;-76
2021/04/30 10:59:27;;;;;;;32.03;20.40;;;8.10;78.90;;;;;;5035710;28;20028;-77
2021/04/30 11:02:02;;;;;;;29.70;20.70;;;8.10;79.30;;;;;;5051366;28;20029;-78
2021/04/30 11:04:28;;;;;;;26.40;15.43;;;8.00;78.60;;;;;;5051595;28;20047;-78
2021/04/30 11:06:55;;;;;;;32.08;20.27;;;7.80;79.70;;;;;;5051921;28;20025;-77
2021/04/30 11:09:30;;;;;;;31.00;20.42;;;7.70;79.70;;;;;;5051335;28;20079;-77
2021/04/30 11:12:00;;;;;;;31.73;21.20;;;7.70;80.10;;;;;;5050357;28;20553;-77
2021/04/30 11:14:26;;;;;;;30.75;21.67;;;7.60;79.90;;;;;;5034946;28;20028;-78
2021/04/30 11:16:54;;;;;;;31.50;20.88;;;7.50;81.80;;;;;;5053002;28;20453;-77
2021/04/30 11:19:21;;;;;;;29.80;20.58;;;7.60;81.40;;;;;;5051563;28;20021;-77
2021/04/30 11:21:51;;;;;;;29.77;21.15;;;7.70;81.50;;;;;;5051233;28;20021;-77
2021/04/30 11:24:34;;;;;;;30.45;20.63;;;7.70;81.60;;;;;;5050508;28;20075;-77
2021/04/30 11:27:21;;;;;;;30.80;21.45;;;7.50;80.30;;;;;;5051422;28;20477;-77
2021/04/30 11:29:47;;;;;;;33.50;20.85;;;7.40;81.00;;;;;;5051420;28;20355;-77
2021/04/30 11:32:27;;;;;;;29.98;20.50;;;7.40;82.10;;;;;;5034653;28;20033;-77
2021/04/30 11:34:54;;;;;;;30.00;19.70;;;7.30;81.80;;;;;;5052208;28;20074;-77
2021/04/30 11:37:21;;;;;;;29.95;20.60;;;7.30;81.80;;;;;;5052127;28;20307;-76
2021/04/30 11:39:48;;;;;;;31.05;20.63;;;7.20;81.60;;;;;;5051803;28;20037;-77
2021/04/30 11:42:14;;;;;;;25.90;18.98;;;7.10;82.30;;;;;;5051823;28;20064;-77
2021/04/30 11:44:43;;;;;;;31.73;20.65;;;7.20;82.10;;;;;;5050773;28;20041;-78
2021/04/30 11:47:14;;;;;;;27.08;19.90;;;7.20;81.50;;;;;;5050827;28;20533;-76
2021/04/30 11:49:42;;;;;;;26.75;19.35;;;7.20;81.40;;;;;;5051798;28;20132;-77
2021/04/30 11:52:11;;;;;;;30.10;20.23;;;7.00;81.70;;;;;;5050498;28;20033;-78
2021/04/30 11:54:39;;;;;;;32.83;21.50;;;7.00;82.00;;;;;;5050461;28;20042;-78
2021/04/30 11:57:08;;;;;;;34.92;21.55;;;6.90;82.90;;;;;;5051098;28;20119;-77
2021/04/30 11:59:35;;;;;;;29.15;19.65;;;6.90;82.80;;;;;;5052511;28;20021;-77
2021/04/30 12:02:02;;;;;;;26.77;18.90;;;7.00;82.20;;;;;;5052424;28;20124;-76
2021/04/30 12:04:50;;;;;;;29.23;19.67;;;7.00;82.80;;;;;;5052068;28;20374;-76
2021/04/30 12:07:17;;;;;;;28.45;18.67;;;7.00;82.20;;;;;;5050826;28;20025;-76
2021/04/30 12:09:44;;;;;;;31.08;19.75;;;7.00;82.20;;;;;;5052294;28;20083;-77
2021/04/30 12:12:24;;;;;;;26.42;19.27;;;7.00;82.20;;;;;;5052692;28;20021;-76
2021/04/30 12:14:53;;;;;;;25.42;18.77;;;7.10;82.40;;;;;;5052500;28;20021;-75
2021/04/30 12:17:20;;;;;;;25.15;17.83;;;7.10;82.00;;;;;;5052359;28;20029;-73
2021/04/30 12:20:03;;;;;;;28.00;19.95;;;7.20;81.80;;;;;;5051278;28;20025;-74
2021/04/30 12:22:32;;;;;;;28.80;20.20;;;7.20;81.40;;;;;;5052335;28;20103;-76
2021/04/30 12:25:44;;;;;;;26.65;18.85;;;7.20;82.20;;;;;;5050732;28;20041;-76
2021/04/30 12:28:26;;;;;;;31.88;20.77;;;7.20;82.10;;;;;;5041304;28;20036;-75
2021/04/30 12:31:03;;;;;;;24.67;16.52;;;7.30;81.80;;;;;;5050908;28;20029;-76
2021/04/30 12:33:40;;;;;;;26.13;18.90;;;7.30;81.20;;;;;;5050682;28;20482;-77
2021/04/30 12:36:10;;;;;;;28.88;19.45;;;7.20;81.40;;;;;;5050971;28;20382;-76
2021/04/30 12:38:37;;;;;;;27.10;19.20;;;7.00;81.40;;;;;;5055702;28;20033;-77
2021/04/30 12:41:30;;;;;;;29.85;19.48;;;7.00;82.30;;;;;;5055794;28;20175;-76
2021/04/30 12:43:58;;;;;;;29.23;18.85;;;7.00;82.40;;;;;;5055584;28;20045;-76